createdAt,value
2018-12-10T00:01:20.363Z,87.60
2018-12-10T00:03:53.072Z,83.87
2018-12-10T00:06:25.632Z,82.80
2018-12-10T00:08:56.106Z,84.37
2018-12-10T00:11:26.247Z,85.27
2018-12-10T00:13:56.441Z,77.53
2018-12-10T00:16:26.774Z,85.07
2018-12-10T00:18:57.204Z,85.33
2018-12-10T00:21:27.514Z,89.97
2018-12-10T00:23:58.369Z,91.50
2018-12-10T00:26:28.550Z,88.30
2018-12-10T00:28:58.950Z,89.93
2018-12-10T00:31:29.266Z,91.40
2018-12-10T00:33:59.873Z,88.93
2018-12-10T00:36:30.264Z,81.13
2018-12-10T00:39:00.523Z,79.37
2018-12-10T00:41:30.950Z,82.83
2018-12-10T00:44:01.165Z,79.83
2018-12-10T00:46:31.385Z,80.50
2018-12-10T00:49:01.615Z,74.83
2018-12-10T00:51:32.728Z,69.37
2018-12-10T00:54:03.170Z,77.40
2018-12-10T00:56:33.409Z,78.43
2018-12-10T00:59:03.821Z,79.57
2018-12-10T01:01:34.312Z,68.40
2018-12-10T01:04:05.089Z,76.93
2018-12-10T01:06:35.595Z,69.37
2018-12-10T01:09:07.110Z,71.03
2018-12-10T01:11:38.488Z,73.50
2018-12-10T01:14:08.888Z,75.23
2018-12-10T01:16:39.842Z,84.03
2018-12-10T01:19:09.958Z,78.17
2018-12-10T01:21:40.194Z,84.60
2018-12-10T01:24:11.457Z,81.17
2018-12-10T01:26:41.728Z,74.63
2018-12-10T01:29:11.913Z,81.00
2018-12-10T01:31:42.191Z,72.60
2018-12-10T01:34:12.969Z,69.87
2018-12-10T01:36:43.165Z,70.13
2018-12-10T01:39:13.372Z,76.60
2018-12-10T01:41:43.844Z,82.20
2018-12-10T01:44:14.039Z,77.57
2018-12-10T01:46:44.209Z,83.00
2018-12-10T01:49:14.280Z,82.20
2018-12-10T01:51:44.642Z,78.97
2018-12-10T01:54:14.938Z,82.17
2018-12-10T01:56:45.177Z,79.37
2018-12-10T01:59:16.066Z,73.33
2018-12-10T02:01:46.360Z,75.40
2018-12-10T02:04:16.557Z,76.13
2018-12-10T02:06:46.852Z,78.17
2018-12-10T02:09:17.037Z,64.23
2018-12-10T02:11:47.325Z,63.37
2018-12-10T02:14:17.475Z,62.63
2018-12-10T02:16:47.691Z,60.90
2018-12-10T02:19:19.123Z,56.93
2018-12-10T02:21:49.376Z,62.97
2018-12-10T02:24:19.599Z,70.97
2018-12-10T02:26:49.971Z,65.13
2018-12-10T02:29:20.153Z,62.87
2018-12-10T02:31:50.565Z,64.03
2018-12-10T02:34:20.653Z,71.23
2018-12-10T02:36:50.946Z,66.80
2018-12-10T02:39:21.179Z,67.83
2018-12-10T02:41:51.431Z,62.43
2018-12-10T02:44:21.579Z,65.80
2018-12-10T02:46:51.910Z,63.57
2018-12-10T02:49:22.083Z,55.10
2018-12-10T02:51:53.366Z,65.27
2018-12-10T02:54:23.604Z,67.47
2018-12-10T02:56:54.053Z,70.20
2018-12-10T02:59:24.228Z,62.03
2018-12-10T03:01:54.474Z,69.37
2018-12-10T03:04:24.925Z,61.17
2018-12-10T03:06:56.178Z,65.70
2018-12-10T03:09:26.349Z,65.20
2018-12-10T03:11:56.623Z,63.97
2018-12-10T03:14:26.888Z,68.07
2018-12-10T03:16:57.035Z,62.70
2018-12-10T03:19:27.211Z,61.73
2018-12-10T03:21:57.550Z,61.93
2018-12-10T03:24:27.808Z,55.90
2018-12-10T03:26:58.351Z,57.17
2018-12-10T03:29:28.611Z,62.93
2018-12-10T03:31:58.776Z,57.10
2018-12-10T03:34:29.082Z,58.23
2018-12-10T03:36:59.345Z,57.03
2018-12-10T03:39:29.381Z,72.47
2018-12-10T03:41:59.698Z,65.30
2018-12-10T03:44:29.991Z,63.67
2018-12-10T03:47:00.232Z,59.07
2018-12-10T03:49:30.497Z,62.10
2018-12-10T03:52:00.771Z,60.60
2018-12-10T03:54:31.019Z,65.33
2018-12-10T03:57:01.274Z,66.93
2018-12-10T03:59:31.686Z,58.33
2018-12-10T04:02:01.899Z,66.23
2018-12-10T04:04:32.124Z,60.53
2018-12-10T04:07:02.255Z,69.30
2018-12-10T04:09:32.491Z,70.17
2018-12-10T04:12:02.772Z,65.50
2018-12-10T04:14:33.436Z,61.17
2018-12-10T04:17:03.904Z,66.00
2018-12-10T04:19:34.237Z,67.17
2018-12-10T04:22:04.498Z,70.67
2018-12-10T04:24:34.886Z,74.40
2018-12-10T04:27:05.038Z,90.37
2018-12-10T04:29:35.386Z,87.50
2018-12-10T04:32:05.561Z,86.73
2018-12-10T04:34:37.242Z,101.13
2018-12-10T04:37:07.887Z,95.47
2018-12-10T04:39:38.164Z,89.20
2018-12-10T04:42:08.354Z,94.77
2018-12-10T04:44:38.633Z,92.40
2018-12-10T04:47:08.847Z,104.70
2018-12-10T04:49:39.128Z,98.23
2018-12-10T04:52:09.239Z,95.07
2018-12-10T04:54:39.388Z,97.50
2018-12-10T04:57:09.637Z,91.50
2018-12-10T04:59:40.876Z,95.23
2018-12-10T05:02:11.548Z,90.90
2018-12-10T05:04:41.784Z,81.93
2018-12-10T05:07:12.115Z,87.83
2018-12-10T05:09:42.522Z,82.37
2018-12-10T05:12:12.812Z,76.97
2018-12-10T05:14:43.043Z,73.10
2018-12-10T05:17:13.234Z,70.17
2018-12-10T05:19:43.418Z,74.53
2018-12-10T05:22:13.500Z,73.13
2018-12-10T05:24:43.848Z,77.70
2018-12-10T05:27:14.186Z,73.73
2018-12-10T05:29:44.332Z,75.13
2018-12-10T05:32:14.396Z,80.03
2018-12-10T05:34:44.708Z,71.97
2018-12-10T05:37:14.996Z,69.77
2018-12-10T05:39:45.176Z,64.40
2018-12-10T05:42:15.206Z,66.77
2018-12-10T05:44:45.134Z,73.67
2018-12-10T05:47:15.189Z,78.57
2018-12-10T05:49:45.314Z,85.20
2018-12-10T05:52:15.645Z,76.97
2018-12-10T05:54:45.986Z,79.27
2018-12-10T05:57:16.299Z,78.63
2018-12-10T05:59:46.682Z,73.50
2018-12-10T06:02:17.020Z,75.30
2018-12-10T06:04:47.303Z,77.23
2018-12-10T06:07:17.437Z,81.07
2018-12-10T06:09:47.579Z,82.20
2018-12-10T06:12:17.907Z,75.33
2018-12-10T06:14:48.454Z,75.07
2018-12-10T06:17:18.688Z,68.67
2018-12-10T06:19:48.823Z,73.57
2018-12-10T06:22:19.227Z,73.17
2018-12-10T06:24:49.377Z,74.50
2018-12-10T06:27:19.784Z,64.57
2018-12-10T06:29:50.117Z,70.67
2018-12-10T06:32:20.343Z,65.77
2018-12-10T06:34:50.421Z,66.87
2018-12-10T06:37:20.767Z,77.43
2018-12-10T06:39:51.062Z,78.23
2018-12-10T06:42:21.330Z,82.40
2018-12-10T06:44:51.606Z,77.53
2018-12-10T06:47:22.651Z,82.97
2018-12-10T06:49:52.887Z,83.17
2018-12-10T06:52:23.134Z,85.83
2018-12-10T06:54:53.327Z,81.33
2018-12-10T06:57:23.432Z,76.50
2018-12-10T06:59:53.580Z,70.90
2018-12-10T07:02:23.802Z,78.07
2018-12-10T07:04:53.896Z,81.83
2018-12-10T07:07:24.192Z,80.03
2018-12-10T07:09:54.395Z,83.80
2018-12-10T07:13:53.914Z,92.10
2018-12-10T07:16:24.408Z,167.50
2018-12-10T07:18:54.752Z,158.30
2018-12-10T07:21:24.898Z,162.20
2018-12-10T07:23:55.169Z,172.83
2018-12-10T07:26:25.488Z,178.93
2018-12-10T07:28:55.729Z,164.80
2018-12-10T07:31:25.944Z,175.60
2018-12-10T07:33:56.308Z,163.13
2018-12-10T07:36:26.573Z,167.73
2018-12-10T07:38:56.803Z,174.10
2018-12-10T07:41:27.041Z,165.30
2018-12-10T07:43:57.504Z,162.10
2018-12-10T07:46:27.698Z,163.60
2018-12-10T07:48:57.934Z,162.47
2018-12-10T07:51:28.072Z,171.20
2018-12-10T07:53:58.150Z,169.70
2018-12-10T07:56:29.048Z,180.60
2018-12-10T07:58:59.851Z,197.83
2018-12-10T08:01:30.077Z,208.83
2018-12-10T08:04:00.321Z,215.27
2018-12-10T08:06:30.561Z,210.73
2018-12-10T08:09:00.816Z,242.90
2018-12-10T08:11:31.891Z,252.77
2018-12-10T08:14:03.635Z,233.23
2018-12-10T08:16:34.069Z,228.93
2018-12-10T08:19:04.417Z,239.13
2018-12-10T08:21:34.662Z,214.90
2018-12-10T08:24:04.863Z,217.40
2018-12-10T08:26:35.115Z,233.07
2018-12-10T08:30:57.535Z,211.93
2018-12-10T08:31:37.496Z,206.33
2018-12-10T08:34:07.926Z,213.43
2018-12-10T08:36:38.864Z,171.80
2018-12-10T08:39:09.170Z,169.90
2018-12-10T08:41:39.441Z,171.50
2018-12-10T08:44:10.357Z,155.50
2018-12-10T08:46:40.626Z,162.17
2018-12-10T08:49:10.845Z,163.63
2018-12-10T08:51:41.119Z,139.97
2018-12-10T08:54:11.649Z,142.87
2018-12-10T08:56:41.976Z,129.37
2018-12-10T08:59:12.328Z,124.40
2018-12-10T09:01:42.555Z,127.47
2018-12-10T09:04:12.809Z,120.67
2018-12-10T09:06:43.064Z,100.27
2018-12-10T09:09:13.171Z,83.90
2018-12-10T09:11:43.299Z,91.13
2018-12-10T09:14:13.513Z,98.37
2018-12-10T09:16:43.749Z,112.87
2018-12-10T09:19:14.000Z,92.43
2018-12-10T09:21:44.823Z,78.10
2018-12-10T09:24:15.005Z,53.13
2018-12-10T09:26:45.425Z,46.97
2018-12-10T09:29:15.714Z,38.23
2018-12-10T09:31:45.985Z,34.10
2018-12-10T09:34:16.201Z,35.97
2018-12-10T09:36:47.225Z,30.97
2018-12-10T09:39:17.420Z,29.23
2018-12-10T09:41:47.532Z,29.77
2018-12-10T09:44:17.871Z,28.63
2018-12-10T09:46:48.210Z,28.53
2018-12-10T09:49:19.004Z,28.87
2018-12-10T09:51:49.413Z,29.93
2018-12-10T09:54:19.812Z,28.23
2018-12-10T09:56:50.155Z,34.13
2018-12-10T09:59:20.367Z,31.40
2018-12-10T10:01:50.610Z,28.97
2018-12-10T10:04:20.997Z,27.23
2018-12-10T10:06:51.414Z,29.97
2018-12-10T10:09:22.124Z,29.37
2018-12-10T10:11:52.399Z,33.97
2018-12-10T10:14:22.681Z,29.23
2018-12-10T10:16:52.897Z,30.43
2018-12-10T10:19:23.202Z,29.33
2018-12-10T10:21:53.563Z,31.70
2018-12-10T10:24:23.926Z,32.80
2018-12-10T10:26:54.003Z,37.63
2018-12-10T10:29:24.271Z,34.07
2018-12-10T10:31:55.249Z,28.53
2018-12-10T10:34:25.577Z,25.20
2018-12-10T10:36:55.695Z,29.23
2018-12-10T10:39:26.260Z,28.00
2018-12-10T10:41:57.430Z,24.03
2018-12-10T10:44:27.874Z,30.27
2018-12-10T10:46:58.172Z,23.07
2018-12-10T10:49:28.475Z,23.17
2018-12-10T10:51:58.924Z,25.70
2018-12-10T10:54:29.329Z,24.10
2018-12-10T10:56:59.455Z,27.30
2018-12-10T10:59:29.603Z,25.47
2018-12-10T11:02:04.959Z,27.40
2018-12-10T11:04:37.631Z,24.83
2018-12-10T11:07:07.365Z,23.60
2018-12-10T11:09:37.743Z,21.10
2018-12-10T11:12:08.083Z,18.33
2018-12-10T11:14:38.904Z,20.23
2018-12-10T11:17:09.613Z,25.10
2018-12-10T11:19:39.820Z,21.23
2018-12-10T11:22:10.273Z,21.23
2018-12-10T11:24:41.274Z,19.70
2018-12-10T11:27:11.642Z,18.63
2018-12-10T11:29:42.026Z,21.30
2018-12-10T11:32:12.423Z,17.67
2018-12-10T11:34:42.621Z,17.83
2018-12-10T11:37:12.874Z,22.73
2018-12-10T11:39:43.225Z,19.97
2018-12-10T11:42:13.562Z,19.90
2018-12-10T11:44:43.710Z,22.00
2018-12-10T11:47:14.056Z,18.60
2018-12-10T11:49:44.403Z,22.47
2018-12-10T11:52:14.601Z,20.13
2018-12-10T11:54:44.702Z,22.50
2018-12-10T11:57:14.876Z,18.83
2018-12-10T11:59:46.177Z,21.43
2018-12-10T12:02:16.516Z,23.80
2018-12-10T12:04:47.107Z,24.00
2018-12-10T12:07:19.415Z,18.83
2018-12-10T12:09:49.681Z,21.80
2018-12-10T12:12:20.046Z,21.93
2018-12-10T12:14:50.347Z,21.67
2018-12-10T12:17:21.145Z,25.00
2018-12-10T12:19:51.587Z,20.13
2018-12-10T12:22:21.931Z,22.43
2018-12-10T12:24:52.054Z,23.67
2018-12-10T12:27:23.933Z,20.63
2018-12-10T12:29:54.280Z,19.73
2018-12-10T12:32:24.589Z,24.03
2018-12-10T12:34:54.844Z,23.20
2018-12-10T12:37:25.104Z,21.37
2018-12-10T12:39:55.402Z,24.27
2018-12-10T12:42:25.656Z,23.97
2018-12-10T12:44:55.909Z,24.83
2018-12-10T12:47:26.110Z,23.60
2018-12-10T12:49:56.429Z,26.77
2018-12-10T12:52:26.727Z,26.03
2018-12-10T12:54:56.823Z,25.00
2018-12-10T12:57:27.203Z,25.00
2018-12-10T12:59:57.442Z,27.23
2018-12-10T13:02:27.625Z,24.90
2018-12-10T13:04:57.864Z,26.53
2018-12-10T13:07:28.158Z,28.87
2018-12-10T13:09:58.481Z,25.80
2018-12-10T13:12:28.694Z,27.13
2018-12-10T13:14:58.984Z,29.80
2018-12-10T13:17:29.217Z,26.10
2018-12-10T13:19:59.637Z,26.70
2018-12-10T13:22:29.944Z,27.50
2018-12-10T13:25:00.195Z,26.73
2018-12-10T13:27:30.451Z,28.93
2018-12-10T13:30:00.697Z,24.70
2018-12-10T13:32:31.139Z,24.23
2018-12-10T13:35:01.441Z,26.57
2018-12-10T13:37:31.742Z,25.57
2018-12-10T13:40:01.890Z,25.73
2018-12-10T13:42:32.139Z,28.83
2018-12-10T13:45:03.050Z,29.80
2018-12-10T13:47:33.428Z,26.37
2018-12-10T13:50:03.938Z,30.27
2018-12-10T13:52:34.292Z,29.90
2018-12-10T13:55:04.716Z,31.67
2018-12-10T13:57:34.977Z,29.00
2018-12-10T14:00:05.866Z,32.17
2018-12-10T14:02:36.820Z,30.93
2018-12-10T14:05:11.182Z,28.43
2018-12-10T14:07:41.538Z,32.33
2018-12-10T14:10:11.662Z,29.60
2018-12-10T14:12:41.820Z,31.83
2018-12-10T14:15:12.115Z,28.27
2018-12-10T14:17:42.404Z,36.13
2018-12-10T14:20:12.717Z,36.13
2018-12-10T14:22:43.093Z,33.50
2018-12-10T14:25:23.052Z,36.53
2018-12-10T14:27:53.565Z,31.97
2018-12-10T14:30:24.153Z,39.00
2018-12-10T14:32:54.660Z,35.50
2018-12-10T14:35:24.713Z,39.93
2018-12-10T14:37:54.918Z,36.67
2018-12-10T14:40:25.189Z,36.77
2018-12-10T14:42:57.285Z,39.57
2018-12-10T14:45:27.681Z,37.37
2018-12-10T14:47:58.251Z,42.93
2018-12-10T14:50:28.396Z,42.77
2018-12-10T14:52:58.674Z,31.60
2018-12-10T14:55:29.026Z,34.83
2018-12-10T14:57:59.333Z,35.70
2018-12-10T15:00:29.545Z,40.23
2018-12-10T15:02:59.715Z,34.17
2018-12-10T15:05:30.144Z,36.50
2018-12-10T15:08:00.343Z,36.53
2018-12-10T15:10:30.695Z,32.33
2018-12-10T15:13:01.005Z,31.80
2018-12-10T15:15:31.509Z,29.37
2018-12-10T15:18:01.746Z,31.60
2018-12-10T15:20:31.993Z,35.23
2018-12-10T15:23:02.213Z,32.60
2018-12-10T15:25:32.572Z,32.27
2018-12-10T15:28:03.078Z,36.17
2018-12-10T15:30:33.366Z,34.10
2018-12-10T15:33:03.660Z,28.27
2018-12-10T15:35:34.027Z,28.17
2018-12-10T15:38:04.346Z,27.93
2018-12-10T15:40:34.625Z,28.67
2018-12-10T15:43:04.776Z,28.63
2018-12-10T15:45:35.036Z,27.60
2018-12-10T15:48:05.636Z,28.00
2018-12-10T15:50:35.927Z,30.13
2018-12-10T15:53:06.136Z,26.20
2018-12-10T15:55:36.487Z,28.00
2018-12-10T15:58:06.761Z,29.27
2018-12-10T16:00:37.265Z,32.30
2018-12-10T16:03:07.533Z,28.40
2018-12-10T16:05:37.756Z,29.97
2018-12-10T16:08:08.001Z,31.40
2018-12-10T16:10:38.300Z,29.70
2018-12-10T16:13:08.807Z,31.67
2018-12-10T16:15:39.185Z,30.70
2018-12-10T16:18:09.487Z,35.63
2018-12-10T16:20:39.808Z,34.90
2018-12-10T16:23:10.409Z,36.37
2018-12-10T16:25:40.633Z,31.37
2018-12-10T16:28:11.052Z,36.80
2018-12-10T16:30:41.379Z,32.30
2018-12-10T16:33:12.059Z,30.80
2018-12-10T16:35:42.516Z,38.47
2018-12-10T16:38:12.797Z,38.50
2018-12-10T16:40:42.902Z,31.03
2018-12-10T16:43:13.337Z,30.30
2018-12-10T16:45:43.688Z,33.63
2018-12-10T16:48:13.924Z,31.80
2018-12-10T16:50:44.266Z,29.50
2018-12-10T16:53:14.608Z,31.40
2018-12-10T16:55:44.817Z,33.10
2018-12-10T16:58:14.972Z,28.43
2018-12-10T17:00:45.451Z,32.47
2018-12-10T17:03:15.818Z,32.00
2018-12-10T17:05:46.193Z,29.13
2018-12-10T17:08:16.444Z,32.80
2018-12-10T17:10:46.844Z,30.20
2018-12-10T17:13:17.546Z,26.67
2018-12-10T17:15:47.977Z,27.33
2018-12-10T17:18:18.196Z,30.20
2018-12-10T17:20:48.671Z,29.20
2018-12-10T17:23:20.024Z,29.27
2018-12-10T17:25:50.299Z,27.47
2018-12-10T17:28:20.598Z,23.97
2018-12-10T17:30:50.888Z,26.73
2018-12-10T17:33:21.166Z,25.43
2018-12-10T17:35:51.532Z,29.10
2018-12-10T17:38:21.640Z,27.47
2018-12-10T17:42:21.179Z,23.67
2018-12-10T17:44:51.599Z,23.17
2018-12-10T17:47:21.918Z,22.00
2018-12-10T17:49:52.609Z,22.77
2018-12-10T17:52:23.004Z,20.27
2018-12-10T17:54:54.559Z,23.83
2018-12-10T17:57:24.924Z,24.17
2018-12-10T17:59:55.151Z,24.00
2018-12-10T18:02:25.579Z,27.00
2018-12-10T18:04:56.892Z,23.90
2018-12-10T18:07:27.234Z,30.70
2018-12-10T18:09:57.453Z,25.47
2018-12-10T18:12:27.657Z,24.20
2018-12-10T18:14:58.093Z,24.70
2018-12-10T18:17:28.171Z,21.73
2018-12-10T18:19:58.326Z,25.03
2018-12-10T18:22:28.755Z,29.33
2018-12-10T18:24:58.985Z,25.10
2018-12-10T18:27:29.398Z,26.77
2018-12-10T18:29:59.946Z,25.03
2018-12-10T18:32:30.322Z,23.50
2018-12-10T18:35:00.836Z,32.57
2018-12-10T18:37:31.132Z,22.43
2018-12-10T18:40:01.507Z,22.33
2018-12-10T18:42:31.808Z,23.47
2018-12-10T18:45:02.747Z,18.40
2018-12-10T18:47:33.059Z,20.00
2018-12-10T18:50:03.428Z,25.03
2018-12-10T18:52:33.569Z,24.23
2018-12-10T18:55:04.120Z,23.63
2018-12-10T18:57:34.246Z,21.03
2018-12-10T19:00:06.476Z,23.30
2018-12-10T19:02:36.755Z,26.93
2018-12-10T19:05:07.310Z,22.63
2018-12-10T19:07:37.786Z,23.33
2018-12-10T19:10:09.349Z,20.57
2018-12-10T19:12:39.754Z,23.17
2018-12-10T19:15:11.103Z,25.37
2018-12-10T19:17:42.345Z,21.53
2018-12-10T19:20:13.695Z,17.40
2018-12-10T19:22:44.178Z,24.00
2018-12-10T19:25:14.460Z,26.17
2018-12-10T19:27:44.820Z,17.70
2018-12-10T19:30:15.274Z,19.07
2018-12-10T19:32:45.597Z,18.33
2018-12-10T19:35:15.870Z,28.57
2018-12-10T19:37:46.050Z,19.77
2018-12-10T19:40:16.223Z,21.67
2018-12-10T19:42:46.498Z,20.53
2018-12-10T19:45:16.726Z,25.00
2018-12-10T19:47:47.290Z,24.80
2018-12-10T19:50:17.740Z,20.83
2018-12-10T19:52:49.627Z,16.63
2018-12-10T19:55:20.582Z,22.63
2018-12-10T19:57:51.877Z,24.10
2018-12-10T20:00:23.915Z,17.00
2018-12-10T20:02:54.155Z,18.27
2018-12-10T20:05:28.443Z,18.90
2018-12-10T20:07:58.795Z,20.33
2018-12-10T20:10:29.196Z,22.03
2018-12-10T20:12:59.427Z,16.23
2018-12-10T20:15:29.715Z,20.17
2018-12-10T20:18:00.085Z,15.23
2018-12-10T20:20:30.225Z,28.93
2018-12-10T20:23:00.461Z,18.43
2018-12-10T20:25:30.732Z,17.17
2018-12-10T20:28:01.143Z,23.07
2018-12-10T20:30:31.358Z,11.57
2018-12-10T20:33:01.501Z,18.70
2018-12-10T20:35:31.713Z,19.93
2018-12-10T20:38:02.027Z,18.23
2018-12-10T20:40:32.335Z,17.93
2018-12-10T20:43:02.582Z,16.07
2018-12-10T20:45:32.722Z,15.50
2018-12-10T20:48:02.968Z,20.03
2018-12-10T20:50:33.137Z,11.80
2018-12-10T20:53:03.198Z,14.87
2018-12-10T20:55:33.573Z,15.50
2018-12-10T20:58:03.830Z,16.33
2018-12-10T21:00:34.106Z,13.90
2018-12-10T21:03:04.458Z,16.20
2018-12-10T21:07:03.789Z,15.10
2018-12-10T21:09:34.131Z,12.50
2018-12-10T21:12:04.659Z,15.27
2018-12-10T21:14:34.889Z,14.10
2018-12-10T21:17:05.132Z,13.10
2018-12-10T21:19:35.560Z,10.77
2018-12-10T21:22:05.629Z,13.37
2018-12-10T21:24:36.105Z,9.67
2018-12-10T21:27:07.272Z,12.03
2018-12-10T21:29:37.572Z,12.17
2018-12-10T21:32:07.927Z,9.80
2018-12-10T21:34:38.068Z,9.90
2018-12-10T21:37:08.334Z,15.63
2018-12-10T21:39:38.555Z,10.77
2018-12-10T21:42:08.785Z,12.13
2018-12-10T21:44:39.028Z,11.17
2018-12-10T21:47:11.060Z,9.80
2018-12-10T21:49:41.284Z,12.77
2018-12-10T21:52:12.459Z,11.33
2018-12-10T21:54:42.688Z,8.13
2018-12-10T21:57:13.088Z,8.27
2018-12-10T21:59:43.273Z,12.00
2018-12-10T22:02:13.414Z,7.23
2018-12-10T22:04:43.659Z,10.93
2018-12-10T22:07:13.961Z,8.03
2018-12-10T22:09:44.179Z,8.23
2018-12-10T22:12:14.482Z,6.70
2018-12-10T22:14:44.556Z,12.00
2018-12-10T22:17:14.847Z,10.67
2018-12-10T22:19:45.030Z,7.10
2018-12-10T22:22:15.313Z,9.60
2018-12-10T22:24:45.350Z,8.10
2018-12-10T22:27:15.689Z,9.50
2018-12-10T22:29:46.137Z,10.70
2018-12-10T22:32:16.341Z,7.03
2018-12-10T22:34:46.585Z,8.53
2018-12-10T22:37:16.819Z,11.17
2018-12-10T22:39:47.059Z,10.00
2018-12-10T22:42:17.573Z,8.03
2018-12-10T22:44:47.847Z,5.33
2018-12-10T22:47:18.377Z,10.50
2018-12-10T22:49:48.651Z,13.83
2018-12-10T22:52:18.895Z,10.47
2018-12-10T22:54:49.464Z,7.23
2018-12-10T22:57:19.585Z,8.40
2018-12-10T22:59:49.825Z,10.10
2018-12-10T23:02:20.136Z,9.00
2018-12-10T23:04:51.625Z,11.43
2018-12-10T23:07:22.891Z,9.50
2018-12-10T23:09:54.021Z,11.13
2018-12-10T23:12:24.392Z,10.00
2018-12-10T23:14:54.584Z,8.70
2018-12-10T23:17:24.947Z,9.63
2018-12-10T23:19:55.133Z,7.77
2018-12-10T23:22:25.317Z,8.13
2018-12-10T23:24:55.590Z,8.40
2018-12-10T23:27:25.718Z,10.37
2018-12-10T23:29:56.654Z,6.13
2018-12-10T23:32:26.928Z,5.23
2018-12-10T23:34:57.185Z,6.73
2018-12-10T23:37:28.371Z,11.37
2018-12-10T23:39:58.591Z,11.80
2018-12-10T23:42:29.099Z,10.00
2018-12-10T23:44:59.429Z,7.17
2018-12-10T23:47:29.779Z,6.87
2018-12-10T23:49:59.883Z,11.07
2018-12-10T23:52:30.014Z,8.90
2018-12-10T23:55:00.322Z,7.63
2018-12-10T23:57:30.545Z,9.23
